sensor_id;sensor_type;location;lat;lon;timestamp;pressure;altitude;pressure_sealevel;temperature;humidity
32320;BME280;19080;51.750;5.888;2024-02-23T00:00:39;98591.47;;;4.62;100.00
32320;BME280;19080;51.750;5.888;2024-02-23T00:03:06;98582.69;;;4.53;100.00
32320;BME280;19080;51.750;5.888;2024-02-23T00:05:34;98588.84;;;4.55;100.00
32320;BME280;19080;51.750;5.888;2024-02-23T00:08:00;98594.97;;;4.57;100.00
32320;BME280;19080;51.750;5.888;2024-02-23T00:10:27;98591.44;;;4.51;100.00
32320;BME280;19080;51.750;5.888;2024-02-23T00:12:54;98590.59;;;4.52;100.00
32320;BME280;19080;51.750;5.888;2024-02-23T00:15:20;98593.22;;;4.53;100.00
32320;BME280;19080;51.750;5.888;2024-02-23T00:17:47;98609.88;;;4.58;100.00
32320;BME280;19080;51.750;5.888;2024-02-23T00:20:13;98606.34;;;4.55;100.00
32320;BME280;19080;51.750;5.888;2024-02-23T00:22:42;98580.03;;;4.37;100.00
32320;BME280;19080;51.750;5.888;2024-02-23T00:25:08;98586.13;;;4.34;100.00
32320;BME280;19080;51.750;5.888;2024-02-23T00:27:35;98606.31;;;4.44;100.00
32320;BME280;19080;51.750;5.888;2024-02-23T00:30:01;98605.44;;;4.47;100.00
32320;BME280;19080;51.750;5.888;2024-02-23T00:32:28;98615.06;;;4.46;100.00
32320;BME280;19080;51.750;5.888;2024-02-23T00:34:57;98622.06;;;4.43;100.00
32320;BME280;19080;51.750;5.888;2024-02-23T00:37:23;98611.56;;;4.43;100.00
32320;BME280;19080;51.750;5.888;2024-02-23T00:39:50;98624.69;;;4.41;100.00
32320;BME280;19080;51.750;5.888;2024-02-23T00:42:17;98628.19;;;4.40;100.00
32320;BME280;19080;51.750;5.888;2024-02-23T00:44:44;98625.56;;;4.43;100.00
32320;BME280;19080;51.750;5.888;2024-02-23T00:47:12;98629.06;;;4.41;100.00
32320;BME280;19080;51.750;5.888;2024-02-23T00:49:38;98643.97;;;4.46;100.00
32320;BME280;19080;51.750;5.888;2024-02-23T00:52:05;98633.41;;;4.37;100.00
32320;BME280;19080;51.750;5.888;2024-02-23T00:54:32;98632.53;;;4.38;100.00
32320;BME280;19080;51.750;5.888;2024-02-23T00:56:58;98652.72;;;4.48;100.00
32320;BME280;19080;51.750;5.888;2024-02-23T00:59:25;98651.88;;;4.52;100.00
32320;BME280;19080;51.750;5.888;2024-02-23T01:01:52;98660.66;;;4.61;100.00
32320;BME280;19080;51.750;5.888;2024-02-23T01:04:18;98640.47;;;4.47;100.00
32320;BME280;19080;51.750;5.888;2024-02-23T01:06:45;98665.06;;;4.66;100.00
32320;BME280;19080;51.750;5.888;2024-02-23T01:09:12;98659.78;;;4.65;100.00
32320;BME280;19080;51.750;5.888;2024-02-23T01:11:39;98644.91;;;4.65;100.00
32320;BME280;19080;51.750;5.888;2024-02-23T01:14:06;98660.72;;;4.82;100.00
32320;BME280;19080;51.750;5.888;2024-02-23T01:16:33;98675.66;;;4.92;100.00
32320;BME280;19080;51.750;5.888;2024-02-23T01:19:00;98646.72;;;4.83;100.00
32320;BME280;19080;51.750;5.888;2024-02-23T01:21:26;98670.41;;;5.00;100.00
32320;BME280;19080;51.750;5.888;2024-02-23T01:23:53;98679.19;;;5.00;100.00
32320;BME280;19080;51.750;5.888;2024-02-23T01:26:19;98686.19;;;4.97;100.00
32320;BME280;19080;51.750;5.888;2024-02-23T01:28:46;98660.69;;;4.73;100.00
32320;BME280;19080;51.750;5.888;2024-02-23T01:31:13;98681.75;;;4.82;100.00
32320;BME280;19080;51.750;5.888;2024-02-23T01:33:40;98688.75;;;4.81;100.00
32320;BME280;19080;51.750;5.888;2024-02-23T01:36:07;98684.38;;;4.76;100.00
32320;BME280;19080;51.750;5.888;2024-02-23T01:38:34;98688.72;;;4.72;100.00
32320;BME280;19080;51.750;5.888;2024-02-23T01:41:01;98679.03;;;4.61;100.00
32320;BME280;19080;51.750;5.888;2024-02-23T01:43:28;98679.06;;;4.64;100.00
32320;BME280;19080;51.750;5.888;2024-02-23T01:45:54;98689.59;;;4.68;100.00
32320;BME280;19080;51.750;5.888;2024-02-23T01:48:21;98686.94;;;4.65;100.00
32320;BME280;19080;51.750;5.888;2024-02-23T01:50:48;98691.28;;;4.58;100.00
32320;BME280;19080;51.750;5.888;2024-02-23T01:53:15;98704.44;;;4.63;100.00
32320;BME280;19080;51.750;5.888;2024-02-23T01:55:45;98718.47;;;4.65;100.00
32320;BME280;19080;51.750;5.888;2024-02-23T01:58:12;98711.47;;;4.66;100.00
32320;BME280;19080;51.750;5.888;2024-02-23T02:00:39;98715.84;;;4.67;100.00
32320;BME280;19080;51.750;5.888;2024-02-23T02:03:05;98721.97;;;4.67;100.00
32320;BME280;19080;51.750;5.888;2024-02-23T02:05:37;98721.09;;;4.67;100.00
32320;BME280;19080;51.750;5.888;2024-02-23T02:08:04;98710.56;;;4.57;100.00
32320;BME280;19080;51.750;5.888;2024-02-23T02:10:31;98718.47;;;4.62;100.00
32320;BME280;19080;51.750;5.888;2024-02-23T02:13:05;98711.47;;;4.69;100.00
32320;BME280;19080;51.750;5.888;2024-02-23T02:15:32;98684.25;;;4.48;100.00
32320;BME280;19080;51.750;5.888;2024-02-23T02:17:58;98707.97;;;4.70;100.00
32320;BME280;19080;51.750;5.888;2024-02-23T02:20:25;98679.03;;;4.54;100.00
32320;BME280;19080;51.750;5.888;2024-02-23T02:22:54;98710.63;;;4.76;100.00
32320;BME280;19080;51.750;5.888;2024-02-23T02:25:21;98729.94;;;4.81;100.00
32320;BME280;19080;51.750;5.888;2024-02-23T02:27:47;98731.69;;;4.85;100.00
32320;BME280;19080;51.750;5.888;2024-02-23T02:30:14;98733.44;;;4.80;100.00
32320;BME280;19080;51.750;5.888;2024-02-23T02:32:41;98750.97;;;4.85;100.00
32320;BME280;19080;51.750;5.888;2024-02-23T02:35:10;98738.69;;;4.80;100.00
32320;BME280;19080;51.750;5.888;2024-02-23T02:37:37;98743.06;;;4.78;100.00
32320;BME280;19080;51.750;5.888;2024-02-23T02:40:04;98743.03;;;4.75;100.00
32320;BME280;19080;51.750;5.888;2024-02-23T02:42:31;98750.03;;;4.71;100.00
32320;BME280;19080;51.750;5.888;2024-02-23T02:44:57;98740.31;;;4.56;100.00
32320;BME280;19080;51.750;5.888;2024-02-23T02:47:24;98759.69;;;4.77;100.00
32320;BME280;19080;51.750;5.888;2024-02-23T02:49:51;98761.41;;;4.72;100.00
32320;BME280;19080;51.750;5.888;2024-02-23T02:52:18;98759.63;;;4.62;100.00
32320;BME280;19080;51.750;5.888;2024-02-23T02:54:47;98765.78;;;4.67;100.00
32320;BME280;19080;51.750;5.888;2024-02-23T02:57:14;98759.66;;;4.68;100.00
32320;BME280;19080;51.750;5.888;2024-02-23T02:59:41;98775.44;;;4.71;100.00
32320;BME280;19080;51.750;5.888;2024-02-23T03:02:08;98764.88;;;4.66;100.00
32320;BME280;19080;51.750;5.888;2024-02-23T03:04:34;98777.16;;;4.66;100.00
32320;BME280;19080;51.750;5.888;2024-02-23T03:07:01;98761.38;;;4.61;100.00
32320;BME280;19080;51.750;5.888;2024-02-23T03:09:27;98784.16;;;4.67;100.00
32320;BME280;19080;51.750;5.888;2024-02-23T03:11:54;98772.78;;;4.68;100.00
32320;BME280;19080;51.750;5.888;2024-02-23T03:14:21;98763.97;;;4.58;100.00
32320;BME280;19080;51.750;5.888;2024-02-23T03:16:48;98775.34;;;4.58;100.00
32320;BME280;19080;51.750;5.888;2024-02-23T03:19:16;98776.25;;;4.62;100.00
32320;BME280;19080;51.750;5.888;2024-02-23T03:21:46;98776.25;;;4.61;100.00
32320;BME280;19080;51.750;5.888;2024-02-23T03:24:12;98774.47;;;4.58;100.00
32320;BME280;19080;51.750;5.888;2024-02-23T03:26:39;98754.28;;;4.46;100.00
32320;BME280;19080;51.750;5.888;2024-02-23T03:29:06;98756.00;;;4.44;100.00
32320;BME280;19080;51.750;5.888;2024-02-23T03:31:33;98791.16;;;4.65;100.00
32320;BME280;19080;51.750;5.888;2024-02-23T03:34:00;98792.03;;;4.67;100.00
32320;BME280;19080;51.750;5.888;2024-02-23T03:36:26;98794.66;;;4.64;100.00
32320;BME280;19080;51.750;5.888;2024-02-23T03:38:53;98792.94;;;4.70;100.00
32320;BME280;19080;51.750;5.888;2024-02-23T03:41:19;98773.63;;;4.64;100.00
32320;BME280;19080;51.750;5.888;2024-02-23T03:43:46;98800.88;;;4.78;100.00
32320;BME280;19080;51.750;5.888;2024-02-23T03:46:13;98795.59;;;4.78;100.00
32320;BME280;19080;51.750;5.888;2024-02-23T03:48:41;98790.31;;;4.73;100.00
32320;BME280;19080;51.750;5.888;2024-02-23T03:51:08;98822.00;;;4.96;100.00
32320;BME280;19080;51.750;5.888;2024-02-23T03:53:35;98814.97;;;4.94;100.00
32320;BME280;19080;51.750;5.888;2024-02-23T03:56:02;98778.09;;;4.80;100.00
32320;BME280;19080;51.750;5.888;2024-02-23T03:58:29;98807.13;;;5.04;100.00
32320;BME280;19080;51.750;5.888;2024-02-23T04:00:56;98809.78;;;5.12;100.00
32320;BME280;19080;51.750;5.888;2024-02-23T04:03:22;98816.81;;;5.16;100.00
32320;BME280;19080;51.750;5.888;2024-02-23T04:05:49;98816.81;;;5.16;100.00
32320;BME280;19080;51.750;5.888;2024-02-23T04:08:15;98811.50;;;5.05;100.00
32320;BME280;19080;51.750;5.888;2024-02-23T04:10:42;98787.75;;;4.84;100.00
32320;BME280;19080;51.750;5.888;2024-02-23T04:13:09;98827.25;;;5.01;100.00
32320;BME280;19080;51.750;5.888;2024-02-23T04:15:37;98826.38;;;5.00;100.00
32320;BME280;19080;51.750;5.888;2024-02-23T04:18:03;98831.69;;;5.08;100.00
32320;BME280;19080;51.750;5.888;2024-02-23T04:20:30;98815.94;;;5.15;100.00
32320;BME280;19080;51.750;5.888;2024-02-23T04:22:57;98796.59;;;5.03;100.00
32320;BME280;19080;51.750;5.888;2024-02-23T04:25:24;98806.25;;;5.07;100.00
32320;BME280;19080;51.750;5.888;2024-02-23T04:27:50;98835.25;;;5.30;100.00
32320;BME280;19080;51.750;5.888;2024-02-23T04:30:17;98832.63;;;5.33;100.00
32320;BME280;19080;51.750;5.888;2024-02-23T04:32:44;98843.19;;;5.40;100.00
32320;BME280;19080;51.750;5.888;2024-02-23T04:35:10;98835.28;;;5.42;100.00
32320;BME280;19080;51.750;5.888;2024-02-23T04:37:37;98822.97;;;5.29;100.00
32320;BME280;19080;51.750;5.888;2024-02-23T04:40:04;98842.28;;;5.37;100.00
32320;BME280;19080;51.750;5.888;2024-02-23T04:42:32;98845.78;;;5.36;100.00
32320;BME280;19080;51.750;5.888;2024-02-23T04:44:59;98844.91;;;5.35;100.00
32320;BME280;19080;51.750;5.888;2024-02-23T04:47:25;98848.44;;;5.37;100.00
32320;BME280;19080;51.750;5.888;2024-02-23T04:49:52;98835.25;;;5.33;100.00
32320;BME280;19080;51.750;5.888;2024-02-23T04:52:19;98868.66;;;5.52;100.00
32320;BME280;19080;51.750;5.888;2024-02-23T04:54:46;98862.56;;;5.62;100.00
32320;BME280;19080;51.750;5.888;2024-02-23T04:57:13;98859.06;;;5.68;100.00
32320;BME280;19080;51.750;5.888;2024-02-23T04:59:39;98859.94;;;5.74;100.00
32320;BME280;19080;51.750;5.888;2024-02-23T05:02:06;98838.88;;;5.65;100.00
32320;BME280;19080;51.750;5.888;2024-02-23T05:04:33;98817.78;;;5.53;100.00
32320;BME280;19080;51.750;5.888;2024-02-23T05:06:59;98831.88;;;5.67;100.00
32320;BME280;19080;51.750;5.888;2024-02-23T05:09:26;98867.84;;;5.77;100.00
32320;BME280;19080;51.750;5.888;2024-02-23T05:11:53;98848.56;;;5.77;100.00
32320;BME280;19080;51.750;5.888;2024-02-23T05:14:19;98863.47;;;5.84;100.00
32320;BME280;19080;51.750;5.888;2024-02-23T05:16:46;98866.13;;;5.82;100.00
32320;BME280;19080;51.750;5.888;2024-02-23T05:19:12;98869.63;;;5.83;100.00
32320;BME280;19080;51.750;5.888;2024-02-23T05:21:39;98847.69;;;5.82;100.00
32320;BME280;19080;51.750;5.888;2024-02-23T05:24:06;98834.53;;;5.79;100.00
32320;BME280;19080;51.750;5.888;2024-02-23T05:26:32;98864.44;;;5.98;100.00
32320;BME280;19080;51.750;5.888;2024-02-23T05:28:59;98853.91;;;6.00;100.00
32320;BME280;19080;51.750;5.888;2024-02-23T05:31:44;98833.69;;;5.90;100.00
32320;BME280;19080;51.750;5.888;2024-02-23T05:34:11;98854.78;;;6.02;100.00
32320;BME280;19080;51.750;5.888;2024-02-23T05:36:38;98849.50;;;6.06;100.00
32320;BME280;19080;51.750;5.888;2024-02-23T05:39:04;98859.19;;;6.09;100.00
32320;BME280;19080;51.750;5.888;2024-02-23T05:41:33;98857.41;;;6.06;100.00
32320;BME280;19080;51.750;5.888;2024-02-23T05:44:00;98840.72;;;6.03;100.00
32320;BME280;19080;51.750;5.888;2024-02-23T05:46:30;98869.72;;;6.12;100.00
32320;BME280;19080;51.750;5.888;2024-02-23T05:48:57;98869.72;;;6.15;100.00
32320;BME280;19080;51.750;5.888;2024-02-23T05:51:24;98860.06;;;6.11;100.00
32320;BME280;19080;51.750;5.888;2024-02-23T05:53:50;98855.66;;;6.11;100.00
32320;BME280;19080;51.750;5.888;2024-02-23T05:56:17;98858.31;;;6.14;100.00
32320;BME280;19080;51.750;5.888;2024-02-23T05:58:44;98823.19;;;5.99;100.00
32320;BME280;19080;51.750;5.888;2024-02-23T06:01:10;98831.09;;;6.06;100.00
32320;BME280;19080;51.750;5.888;2024-02-23T06:03:37;98825.81;;;6.09;100.00
32320;BME280;19080;51.750;5.888;2024-02-23T06:06:07;98853.91;;;6.23;100.00
32320;BME280;19080;51.750;5.888;2024-02-23T06:08:35;98845.13;;;6.25;100.00
32320;BME280;19080;51.750;5.888;2024-02-23T06:11:03;98842.50;;;6.34;100.00
32320;BME280;19080;51.750;5.888;2024-02-23T06:13:30;98845.13;;;6.39;100.00
32320;BME280;19080;51.750;5.888;2024-02-23T06:15:57;98851.28;;;6.30;100.00
32320;BME280;19080;51.750;5.888;2024-02-23T06:18:24;98818.81;;;6.17;100.00
32320;BME280;19080;51.750;5.888;2024-02-23T06:20:50;98845.13;;;6.33;100.00
32320;BME280;19080;51.750;5.888;2024-02-23T06:23:17;98815.28;;;6.22;100.00
32320;BME280;19080;51.750;5.888;2024-02-23T06:25:44;98839.00;;;6.35;100.00
32320;BME280;19080;51.750;5.888;2024-02-23T06:28:12;98820.56;;;6.22;100.00
32320;BME280;19080;51.750;5.888;2024-02-23T06:30:39;98841.63;;;6.37;100.00
32320;BME280;19080;51.750;5.888;2024-02-23T06:33:06;98839.88;;;6.36;100.00
32320;BME280;19080;51.750;5.888;2024-02-23T06:35:32;98846.00;;;6.42;100.00
32320;BME280;19080;51.750;5.888;2024-02-23T06:37:59;98851.28;;;6.45;100.00
32320;BME280;19080;51.750;5.888;2024-02-23T06:40:26;98832.84;;;6.39;100.00
32320;BME280;19080;51.750;5.888;2024-02-23T06:43:10;98841.63;;;6.46;100.00
32320;BME280;19080;51.750;5.888;2024-02-23T06:45:37;98853.91;;;6.51;100.00
32320;BME280;19080;51.750;5.888;2024-02-23T06:48:04;98858.31;;;6.52;100.00
32320;BME280;19080;51.750;5.888;2024-02-23T06:50:31;98848.66;;;6.58;100.00
32320;BME280;19080;51.750;5.888;2024-02-23T06:52:58;98854.78;;;6.60;100.00
32320;BME280;19080;51.750;5.888;2024-02-23T06:55:24;98817.91;;;6.40;100.00
32320;BME280;19080;51.750;5.888;2024-02-23T06:57:51;98849.53;;;6.60;100.00
32320;BME280;19080;51.750;5.888;2024-02-23T07:00:19;98842.50;;;6.62;100.00
32320;BME280;19080;51.750;5.888;2024-02-23T07:02:46;98844.25;;;6.66;100.00
32320;BME280;19080;51.750;5.888;2024-02-23T07:05:13;98837.22;;;6.68;100.00
32320;BME280;19080;51.750;5.888;2024-02-23T07:07:40;98830.19;;;6.70;100.00
32320;BME280;19080;51.750;5.888;2024-02-23T07:10:08;98840.72;;;6.76;100.00
32320;BME280;19080;51.750;5.888;2024-02-23T07:12:35;98831.03;;;6.79;100.00
32320;BME280;19080;51.750;5.888;2024-02-23T07:15:02;98830.16;;;6.76;100.00
32320;BME280;19080;51.750;5.888;2024-02-23T07:17:28;98824.91;;;6.76;100.00
32320;BME280;19080;51.750;5.888;2024-02-23T07:19:55;98838.06;;;6.87;100.00
32320;BME280;19080;51.750;5.888;2024-02-23T07:22:29;98849.50;;;6.81;100.00
32320;BME280;19080;51.750;5.888;2024-02-23T07:24:56;98854.75;;;6.90;100.00
32320;BME280;19080;51.750;5.888;2024-02-23T07:27:22;98861.78;;;6.91;100.00
32320;BME280;19080;51.750;5.888;2024-02-23T07:29:49;98862.63;;;6.95;100.00
32320;BME280;19080;51.750;5.888;2024-02-23T07:32:16;98858.22;;;6.97;100.00
32320;BME280;19080;51.750;5.888;2024-02-23T07:34:43;98861.72;;;7.03;100.00
32320;BME280;19080;51.750;5.888;2024-02-23T07:37:09;98864.34;;;7.03;100.00
32320;BME280;19080;51.750;5.888;2024-02-23T07:39:36;98859.06;;;7.05;100.00
32320;BME280;19080;51.750;5.888;2024-02-23T07:42:03;98863.44;;;7.13;100.00
32320;BME280;19080;51.750;5.888;2024-02-23T07:44:29;98831.81;;;7.04;100.00
32320;BME280;19080;51.750;5.888;2024-02-23T07:46:56;98866.06;;;7.18;100.00
32320;BME280;19080;51.750;5.888;2024-02-23T07:49:24;98844.97;;;7.13;100.00
32320;BME280;19080;51.750;5.888;2024-02-23T07:51:51;98858.13;;;7.23;100.00
32320;BME280;19080;51.750;5.888;2024-02-23T07:54:18;98881.00;;;7.28;100.00
32320;BME280;19080;51.750;5.888;2024-02-23T07:56:44;98861.63;;;7.34;100.00
32320;BME280;19080;51.750;5.888;2024-02-23T07:59:11;98850.19;;;7.30;100.00
32320;BME280;19080;51.750;5.888;2024-02-23T08:01:38;98858.06;;;7.45;100.00
32320;BME280;19080;51.750;5.888;2024-02-23T08:04:06;98857.94;;;7.68;100.00
32320;BME280;19080;51.750;5.888;2024-02-23T08:06:33;98855.84;;;8.22;100.00
32320;BME280;19080;51.750;5.888;2024-02-23T08:08:59;98829.84;;;9.51;100.00
32320;BME280;19080;51.750;5.888;2024-02-23T08:11:26;98841.41;;;9.44;100.00
32320;BME280;19080;51.750;5.888;2024-02-23T08:13:53;98856.66;;;9.24;100.00
32320;BME280;19080;51.750;5.888;2024-02-23T08:16:19;98850.66;;;9.08;100.00
32320;BME280;19080;51.750;5.888;2024-02-23T08:18:46;98838.59;;;8.81;100.00
32320;BME280;19080;51.750;5.888;2024-02-23T08:21:13;98857.25;;;8.67;100.00
32320;BME280;19080;51.750;5.888;2024-02-23T08:23:40;98831.06;;;8.40;100.00
32320;BME280;19080;51.750;5.888;2024-02-23T08:26:06;98851.34;;;8.38;100.00
32320;BME280;19080;51.750;5.888;2024-02-23T08:28:33;98849.63;;;8.29;100.00
32320;BME280;19080;51.750;5.888;2024-02-23T08:31:00;98840.97;;;8.10;100.00
32320;BME280;19080;51.750;5.888;2024-02-23T08:33:26;98837.38;;;8.18;100.00
32320;BME280;19080;51.750;5.888;2024-02-23T08:35:54;98841.81;;;8.14;100.00
32320;BME280;19080;51.750;5.888;2024-02-23T08:38:20;98850.59;;;8.16;100.00
32320;BME280;19080;51.750;5.888;2024-02-23T08:40:47;98845.31;;;8.16;100.00
32320;BME280;19080;51.750;5.888;2024-02-23T08:43:14;98843.56;;;8.15;100.00
32320;BME280;19080;51.750;5.888;2024-02-23T08:45:41;98829.47;;;8.16;100.00
32320;BME280;19080;51.750;5.888;2024-02-23T08:48:07;98843.56;;;8.18;100.00
32320;BME280;19080;51.750;5.888;2024-02-23T08:50:35;98806.59;;;8.12;100.00
32320;BME280;19080;51.750;5.888;2024-02-23T08:53:02;98828.50;;;8.26;100.00
32320;BME280;19080;51.750;5.888;2024-02-23T08:55:29;98831.19;;;8.23;100.00
32320;BME280;19080;51.750;5.888;2024-02-23T08:57:55;98825.84;;;8.28;100.00
32320;BME280;19080;51.750;5.888;2024-02-23T09:00:22;98825.00;;;8.26;100.00
32320;BME280;19080;51.750;5.888;2024-02-23T09:02:50;98824.97;;;8.30;100.00
32320;BME280;19080;51.750;5.888;2024-02-23T09:05:17;98823.19;;;8.35;100.00
32320;BME280;19080;51.750;5.888;2024-02-23T09:07:44;98827.59;;;8.36;100.00
32320;BME280;19080;51.750;5.888;2024-02-23T09:10:12;98826.72;;;8.36;100.00
32320;BME280;19080;51.750;5.888;2024-02-23T09:12:38;98812.53;;;8.43;100.00
32320;BME280;19080;51.750;5.888;2024-02-23T09:15:05;98833.44;;;8.69;100.00
32320;BME280;19080;51.750;5.888;2024-02-23T09:17:32;98816.63;;;8.73;100.00
32320;BME280;19080;51.750;5.888;2024-02-23T09:19:59;98806.91;;;8.75;100.00
32320;BME280;19080;51.750;5.888;2024-02-23T09:22:26;98828.88;;;8.83;100.00
32320;BME280;19080;51.750;5.888;2024-02-23T09:24:53;98824.44;;;8.87;100.00
32320;BME280;19080;51.750;5.888;2024-02-23T09:27:23;98807.72;;;8.83;100.00
32320;BME280;19080;51.750;5.888;2024-02-23T09:29:49;98823.69;;;8.74;100.00
32320;BME280;19080;51.750;5.888;2024-02-23T09:32:17;98819.34;;;8.67;100.00
32320;BME280;19080;51.750;5.888;2024-02-23T09:34:43;98816.84;;;8.55;100.00
32320;BME280;19080;51.750;5.888;2024-02-23T09:37:10;98818.69;;;8.46;100.00
32320;BME280;19080;51.750;5.888;2024-02-23T09:39:37;98798.44;;;8.44;100.00
32320;BME280;19080;51.750;5.888;2024-02-23T09:42:08;98801.06;;;8.45;100.00
32320;BME280;19080;51.750;5.888;2024-02-23T09:44:36;98804.56;;;8.47;100.00
32320;BME280;19080;51.750;5.888;2024-02-23T09:47:04;98812.47;;;8.52;100.00
32320;BME280;19080;51.750;5.888;2024-02-23T09:49:38;98833.53;;;8.60;100.00
32320;BME280;19080;51.750;5.888;2024-02-23T09:52:09;98811.69;;;8.39;100.00
32320;BME280;19080;51.750;5.888;2024-02-23T09:54:37;98828.47;;;8.37;100.00
32320;BME280;19080;51.750;5.888;2024-02-23T09:57:08;98833.78;;;8.34;100.00
32320;BME280;19080;51.750;5.888;2024-02-23T09:59:35;98807.34;;;8.29;100.00
32320;BME280;19080;51.750;5.888;2024-02-23T10:02:08;98836.06;;;8.69;100.00
32320;BME280;19080;51.750;5.888;2024-02-23T10:04:39;98826.25;;;8.80;100.00
32320;BME280;19080;51.750;5.888;2024-02-23T10:07:07;98843.72;;;8.98;100.00
32320;BME280;19080;51.750;5.888;2024-02-23T10:09:34;98842.94;;;8.88;100.00
32320;BME280;19080;51.750;5.888;2024-02-23T10:12:02;98843.81;;;8.87;100.00
32320;BME280;19080;51.750;5.888;2024-02-23T10:14:28;98856.19;;;8.84;100.00
32320;BME280;19080;51.750;5.888;2024-02-23T10:16:55;98855.38;;;8.77;100.00
32320;BME280;19080;51.750;5.888;2024-02-23T10:19:22;98872.06;;;8.85;100.00
32320;BME280;19080;51.750;5.888;2024-02-23T10:21:49;98871.31;;;8.69;100.00
32320;BME280;19080;51.750;5.888;2024-02-23T10:24:16;98875.84;;;8.60;100.00
32320;BME280;19080;51.750;5.888;2024-02-23T10:26:44;98873.28;;;8.49;100.00
32320;BME280;19080;51.750;5.888;2024-02-23T10:29:11;98876.88;;;8.40;100.00
32320;BME280;19080;51.750;5.888;2024-02-23T10:31:39;98881.28;;;8.40;100.00
32320;BME280;19080;51.750;5.888;2024-02-23T10:34:07;98883.97;;;8.35;100.00
32320;BME280;19080;51.750;5.888;2024-02-23T10:36:42;98896.31;;;8.33;100.00
32320;BME280;19080;51.750;5.888;2024-02-23T10:39:09;98904.25;;;8.30;100.00
32320;BME280;19080;51.750;5.888;2024-02-23T10:41:36;98903.38;;;8.28;100.00
32320;BME280;19080;51.750;5.888;2024-02-23T10:44:07;98904.28;;;8.24;100.00
32320;BME280;19080;51.750;5.888;2024-02-23T10:46:34;98894.66;;;8.14;100.00
32320;BME280;19080;51.750;5.888;2024-02-23T10:49:01;98910.47;;;8.19;100.00
32320;BME280;19080;51.750;5.888;2024-02-23T10:51:28;98906.91;;;8.26;100.00
32320;BME280;19080;51.750;5.888;2024-02-23T10:53:54;98919.19;;;8.37;100.00
32320;BME280;19080;51.750;5.888;2024-02-23T10:56:22;98918.28;;;8.43;100.00
32320;BME280;19080;51.750;5.888;2024-02-23T10:58:50;98919.97;;;8.52;100.00
32320;BME280;19080;51.750;5.888;2024-02-23T11:01:18;98907.63;;;8.55;100.00
32320;BME280;19080;51.750;5.888;2024-02-23T11:03:46;98893.53;;;8.52;100.00
32320;BME280;19080;51.750;5.888;2024-02-23T11:06:16;98925.97;;;8.69;100.00
32320;BME280;19080;51.750;5.888;2024-02-23T11:08:48;98903.06;;;8.68;100.00
32320;BME280;19080;51.750;5.888;2024-02-23T11:11:16;98920.59;;;8.81;100.00
32320;BME280;19080;51.750;5.888;2024-02-23T11:13:45;98896.84;;;8.73;100.00
32320;BME280;19080;51.750;5.888;2024-02-23T11:16:21;98889.78;;;8.74;100.00
32320;BME280;19080;51.750;5.888;2024-02-23T11:18:49;98923.19;;;8.87;100.00
32320;BME280;19080;51.750;5.888;2024-02-23T11:21:36;98910.97;;;8.72;100.00
32320;BME280;19080;51.750;5.888;2024-02-23T11:24:04;98925.91;;;8.78;100.00
32320;BME280;19080;51.750;5.888;2024-02-23T11:26:31;98925.97;;;8.72;100.00
32320;BME280;19080;51.750;5.888;2024-02-23T11:29:12;98931.25;;;8.72;100.00
32320;BME280;19080;51.750;5.888;2024-02-23T11:31:46;98904.06;;;8.58;100.00
32320;BME280;19080;51.750;5.888;2024-02-23T11:34:13;98923.34;;;8.67;100.00
32320;BME280;19080;51.750;5.888;2024-02-23T11:36:39;98918.09;;;8.66;100.00
32320;BME280;19080;51.750;5.888;2024-02-23T11:39:09;98931.28;;;8.69;100.00
32320;BME280;19080;51.750;5.888;2024-02-23T11:41:37;98922.44;;;8.73;100.00
32320;BME280;19080;51.750;5.888;2024-02-23T11:44:04;98927.66;;;8.79;100.00
32320;BME280;19080;51.750;5.888;2024-02-23T11:46:33;98905.63;;;8.77;100.00
32320;BME280;19080;51.750;5.888;2024-02-23T11:49:00;98932.84;;;8.91;100.00
32320;BME280;19080;51.750;5.888;2024-02-23T11:51:27;98912.59;;;8.89;100.00
32320;BME280;19080;51.750;5.888;2024-02-23T11:53:55;98928.25;;;9.11;100.00
32320;BME280;19080;51.750;5.888;2024-02-23T11:56:24;98931.59;;;9.29;100.00
32320;BME280;19080;51.750;5.888;2024-02-23T11:58:53;98934.19;;;9.35;100.00
32320;BME280;19080;51.750;5.888;2024-02-23T12:01:20;98907.69;;;9.38;100.00
32320;BME280;19080;51.750;5.888;2024-02-23T12:03:47;98925.97;;;9.59;100.00
32320;BME280;19080;51.750;5.888;2024-02-23T12:06:14;98920.66;;;9.61;100.00
32320;BME280;19080;51.750;5.888;2024-02-23T12:08:44;98909.22;;;9.57;100.00
32320;BME280;19080;51.750;5.888;2024-02-23T12:11:13;98928.44;;;9.74;100.00
32320;BME280;19080;51.750;5.888;2024-02-23T12:13:40;98938.00;;;9.88;100.00
32320;BME280;19080;51.750;5.888;2024-02-23T12:16:08;98919.44;;;9.88;100.00
32320;BME280;19080;51.750;5.888;2024-02-23T12:18:35;98933.44;;;9.99;100.00
32320;BME280;19080;51.750;5.888;2024-02-23T12:21:06;98916.78;;;9.88;100.00
32320;BME280;19080;51.750;5.888;2024-02-23T12:23:44;98921.31;;;9.79;100.00
32320;BME280;19080;51.750;5.888;2024-02-23T12:26:16;98910.03;;;9.62;100.00
32320;BME280;19080;51.750;5.888;2024-02-23T12:28:44;98921.50;;;9.64;100.00
32320;BME280;19080;51.750;5.888;2024-02-23T12:31:11;98915.38;;;9.59;100.00
32320;BME280;19080;51.750;5.888;2024-02-23T12:33:39;98925.88;;;9.67;100.00
32320;BME280;19080;51.750;5.888;2024-02-23T12:36:07;98922.41;;;9.62;100.00
32320;BME280;19080;51.750;5.888;2024-02-23T12:38:35;98930.41;;;9.57;100.00
32320;BME280;19080;51.750;5.888;2024-02-23T12:41:02;98935.66;;;9.60;100.00
32320;BME280;19080;51.750;5.888;2024-02-23T12:43:29;98920.69;;;9.59;100.00
32320;BME280;19080;51.750;5.888;2024-02-23T12:45:57;98944.47;;;9.62;100.00
32320;BME280;19080;51.750;5.888;2024-02-23T12:48:24;98922.38;;;9.65;100.00
32320;BME280;19080;51.750;5.888;2024-02-23T12:50:51;98916.97;;;9.74;100.00
32320;BME280;19080;51.750;5.888;2024-02-23T12:53:37;98928.91;;;10.07;100.00
32320;BME280;19080;51.750;5.888;2024-02-23T12:56:10;98927.75;;;10.29;100.00
32320;BME280;19080;51.750;5.888;2024-02-23T12:58:39;98901.31;;;10.23;100.00
32320;BME280;19080;51.750;5.888;2024-02-23T13:01:07;98933.72;;;10.40;100.00